createdAt,value
2019-01-30T06:09:34.651Z,9.90
2019-01-30T06:12:04.153Z,9.93
2019-01-30T06:14:33.809Z,9.70
2019-01-30T06:17:03.239Z,10.07
2019-01-30T06:19:31.929Z,9.77
2019-01-30T06:22:00.938Z,9.50
2019-01-30T06:24:29.684Z,9.40
2019-01-30T06:26:58.633Z,9.30
2019-01-30T06:29:28.129Z,9.87
2019-01-30T06:31:57.222Z,9.73
2019-01-30T06:34:26.657Z,10.70
2019-01-30T06:36:55.808Z,10.13
2019-01-30T06:39:24.543Z,10.57
2019-01-30T06:41:54.332Z,11.27
2019-01-30T06:44:23.842Z,10.73
2019-01-30T06:46:53.064Z,10.27
2019-01-30T06:49:21.541Z,9.83
2019-01-30T06:51:50.257Z,10.20
2019-01-30T06:54:19.073Z,9.33
2019-01-30T06:56:48.351Z,9.77
2019-01-30T06:59:17.488Z,9.27
2019-01-30T07:01:46.536Z,10.20
2019-01-30T07:04:15.224Z,9.50
2019-01-30T07:06:45.192Z,9.60
2019-01-30T07:09:14.717Z,8.83
2019-01-30T07:11:44.564Z,10.10
2019-01-30T07:14:14.150Z,9.50
2019-01-30T07:16:44.813Z,9.10
2019-01-30T07:19:14.125Z,9.20
2019-01-30T07:21:43.349Z,9.07
2019-01-30T07:24:12.573Z,9.93
2019-01-30T07:26:41.463Z,10.57
2019-01-30T07:29:10.302Z,9.90
2019-01-30T07:31:38.873Z,9.93
2019-01-30T07:34:07.792Z,10.33
2019-01-30T07:36:36.508Z,9.70
2019-01-30T07:39:08.627Z,10.67
2019-01-30T07:41:39.136Z,10.00
2019-01-30T07:44:08.995Z,10.37
2019-01-30T07:46:38.735Z,10.33
2019-01-30T07:49:08.329Z,10.27
2019-01-30T07:51:38.740Z,9.80
2019-01-30T07:54:07.692Z,10.40
2019-01-30T07:56:37.219Z,10.23
2019-01-30T07:59:06.907Z,10.63
2019-01-30T08:01:37.548Z,10.93
2019-01-30T08:04:06.970Z,11.07
2019-01-30T08:06:35.786Z,10.33
2019-01-30T08:09:08.543Z,10.70
2019-01-30T08:11:37.431Z,11.07
2019-01-30T08:14:06.362Z,11.30
2019-01-30T08:16:35.710Z,10.60
2019-01-30T08:19:05.627Z,11.87
2019-01-30T08:21:35.050Z,10.80
2019-01-30T08:24:04.262Z,10.87
2019-01-30T08:26:33.070Z,9.43
2019-01-30T08:29:02.274Z,11.13
2019-01-30T08:31:31.421Z,11.07
2019-01-30T08:34:00.833Z,11.77
2019-01-30T08:36:29.655Z,12.80
2019-01-30T08:38:58.690Z,11.50
2019-01-30T08:41:27.582Z,11.03
2019-01-30T08:43:58.079Z,12.47
2019-01-30T08:46:26.068Z,11.90
2019-01-30T08:48:55.818Z,11.63
2019-01-30T08:51:24.986Z,13.40
2019-01-30T08:53:54.486Z,12.40
2019-01-30T08:56:25.104Z,10.87
2019-01-30T08:58:54.228Z,11.40
2019-01-30T09:01:23.785Z,11.43
2019-01-30T09:03:53.289Z,12.07
2019-01-30T09:06:22.137Z,11.93
2019-01-30T09:08:50.964Z,11.37
2019-01-30T09:11:21.234Z,10.87
2019-01-30T09:13:50.401Z,12.13
2019-01-30T09:16:19.298Z,12.67
2019-01-30T09:18:48.407Z,12.87
2019-01-30T09:21:18.658Z,11.60
2019-01-30T09:23:48.091Z,11.73
2019-01-30T09:26:17.251Z,12.13
2019-01-30T09:28:46.437Z,12.30
2019-01-30T09:31:16.953Z,12.47
2019-01-30T09:33:45.433Z,12.70
2019-01-30T09:36:15.727Z,12.60
2019-01-30T09:38:45.051Z,12.93
2019-01-30T09:41:13.945Z,14.07
2019-01-30T09:43:44.146Z,13.87
2019-01-30T09:46:13.320Z,13.77
2019-01-30T09:48:42.868Z,13.63
2019-01-30T09:51:12.318Z,12.90
2019-01-30T09:53:41.623Z,13.73
2019-01-30T09:56:10.682Z,13.40
2019-01-30T09:58:39.809Z,13.57
2019-01-30T10:01:09.464Z,14.17
2019-01-30T10:03:38.540Z,13.30
2019-01-30T10:06:07.448Z,13.67
2019-01-30T10:08:36.896Z,12.93
2019-01-30T10:11:06.165Z,13.57
2019-01-30T10:13:37.357Z,13.13
2019-01-30T10:16:03.988Z,13.50
2019-01-30T10:18:33.101Z,14.07
2019-01-30T10:21:01.980Z,14.43
2019-01-30T10:23:33.476Z,14.33
2019-01-30T10:26:02.679Z,14.60
2019-01-30T10:28:32.264Z,14.30
2019-01-30T10:31:01.467Z,14.93
2019-01-30T10:33:31.016Z,16.20
2019-01-30T10:36:00.875Z,13.90
2019-01-30T10:38:30.365Z,14.57
2019-01-30T10:40:59.405Z,15.40
2019-01-30T10:43:28.674Z,15.63
2019-01-30T10:45:57.402Z,15.87
2019-01-30T10:48:27.220Z,15.63
2019-01-30T10:50:57.800Z,17.50
2019-01-30T10:53:26.669Z,17.30
2019-01-30T10:55:56.172Z,15.67
2019-01-30T10:58:25.372Z,16.60
2019-01-30T11:00:55.005Z,15.87
2019-01-30T11:03:24.952Z,14.97
2019-01-30T11:05:54.180Z,15.60
2019-01-30T11:08:23.669Z,15.90
2019-01-30T11:10:52.844Z,15.10
2019-01-30T11:13:22.392Z,15.93
2019-01-30T11:15:51.785Z,16.67
2019-01-30T11:18:20.561Z,15.53
2019-01-30T11:20:49.672Z,16.47
2019-01-30T11:23:18.851Z,17.10
2019-01-30T11:25:49.304Z,18.17
2019-01-30T11:28:18.846Z,16.57
2019-01-30T11:30:48.789Z,16.70
2019-01-30T11:33:18.296Z,45.87
2019-01-30T11:35:48.396Z,19.17
2019-01-30T11:38:17.329Z,16.47
2019-01-30T11:40:46.548Z,16.00
2019-01-30T11:43:16.092Z,17.03
2019-01-30T11:45:45.835Z,17.43
2019-01-30T11:48:14.798Z,17.60
2019-01-30T11:50:44.078Z,18.27
2019-01-30T11:53:13.006Z,18.37
2019-01-30T11:55:42.033Z,20.30
2019-01-30T11:58:11.308Z,20.37
2019-01-30T12:00:45.660Z,22.73
2019-01-30T12:03:15.506Z,18.47
2019-01-30T12:05:46.751Z,20.83
2019-01-30T12:08:16.248Z,19.60
2019-01-30T12:10:45.373Z,19.47
2019-01-30T12:13:14.875Z,19.00
2019-01-30T12:15:44.071Z,20.00
2019-01-30T12:18:13.447Z,18.83
2019-01-30T12:20:42.676Z,19.53
2019-01-30T12:23:11.460Z,18.07
2019-01-30T12:25:40.296Z,17.67
2019-01-30T12:28:10.467Z,19.13
2019-01-30T12:30:41.000Z,18.77
2019-01-30T12:33:10.525Z,17.73
2019-01-30T12:35:39.269Z,16.77
2019-01-30T12:38:08.044Z,16.90
2019-01-30T12:40:38.441Z,16.10
2019-01-30T12:43:07.387Z,16.13
2019-01-30T12:45:36.219Z,17.03
2019-01-30T12:48:06.460Z,17.27
2019-01-30T12:50:35.717Z,16.97
2019-01-30T12:53:06.038Z,15.20
2019-01-30T12:55:35.334Z,15.67
2019-01-30T12:58:04.925Z,15.17
2019-01-30T13:00:35.705Z,13.73
2019-01-30T13:03:04.609Z,14.73
2019-01-30T13:05:35.249Z,13.97
2019-01-30T13:08:04.035Z,14.57
2019-01-30T13:10:34.308Z,14.20
2019-01-30T13:13:03.735Z,13.90
2019-01-30T13:15:32.860Z,13.93
2019-01-30T13:18:01.888Z,12.33
2019-01-30T13:20:31.399Z,14.03
2019-01-30T13:23:00.806Z,13.63
2019-01-30T13:25:32.009Z,12.10
2019-01-30T13:28:01.966Z,12.17
2019-01-30T13:30:33.762Z,11.47
2019-01-30T13:33:02.982Z,10.27
2019-01-30T13:35:32.480Z,10.93
2019-01-30T13:38:02.787Z,10.37
2019-01-30T13:40:34.171Z,10.77
2019-01-30T13:43:03.023Z,10.43
2019-01-30T13:45:32.465Z,10.20
2019-01-30T13:48:01.402Z,10.43
2019-01-30T13:50:31.179Z,9.67
2019-01-30T13:53:00.323Z,9.30
2019-01-30T13:55:29.449Z,9.47
2019-01-30T13:57:58.263Z,10.00
2019-01-30T14:00:30.917Z,10.37
2019-01-30T14:02:59.712Z,9.67
2019-01-30T14:05:31.508Z,8.10
2019-01-30T14:08:00.754Z,8.33
2019-01-30T14:10:30.047Z,8.40
2019-01-30T14:13:01.518Z,7.67
2019-01-30T14:15:30.839Z,9.30
2019-01-30T14:17:59.987Z,8.33
2019-01-30T14:20:28.961Z,6.93
2019-01-30T14:22:58.224Z,6.50
2019-01-30T14:25:29.121Z,6.37
2019-01-30T14:27:58.324Z,6.20
2019-01-30T14:30:31.281Z,6.57
2019-01-30T14:33:00.030Z,6.00
2019-01-30T14:35:31.549Z,6.03
2019-01-30T14:38:01.466Z,6.07
2019-01-30T14:40:31.171Z,6.30
2019-01-30T14:43:00.655Z,7.03
2019-01-30T14:45:30.897Z,8.27
2019-01-30T14:48:00.790Z,7.10
2019-01-30T14:50:30.069Z,6.70
2019-01-30T14:52:59.128Z,6.50
2019-01-30T14:55:28.215Z,7.20
2019-01-30T14:57:57.098Z,7.70
2019-01-30T15:00:30.544Z,7.03
2019-01-30T15:02:59.348Z,7.47
2019-01-30T15:05:28.213Z,7.20
2019-01-30T15:07:58.007Z,7.47
2019-01-30T15:10:27.686Z,6.90
2019-01-30T15:12:56.908Z,6.80
2019-01-30T15:15:27.548Z,7.07
2019-01-30T15:17:56.549Z,7.57
2019-01-30T15:20:26.070Z,7.57
2019-01-30T15:22:55.468Z,7.37
2019-01-30T15:25:24.439Z,7.37
2019-01-30T15:27:54.212Z,8.23
2019-01-30T15:30:26.106Z,7.83
2019-01-30T15:32:55.184Z,9.57
2019-01-30T15:35:33.218Z,8.50
2019-01-30T15:37:54.902Z,8.40
2019-01-30T15:40:25.461Z,8.23
2019-01-30T15:42:54.289Z,9.67
2019-01-30T15:45:23.752Z,7.80
2019-01-30T15:47:52.826Z,8.00
2019-01-30T15:50:24.951Z,8.67
2019-01-30T15:52:56.044Z,7.17
2019-01-30T15:55:25.818Z,7.57
2019-01-30T15:57:58.296Z,6.67
2019-01-30T16:00:32.509Z,7.40
2019-01-30T16:03:01.701Z,7.97
2019-01-30T16:05:30.548Z,7.43
2019-01-30T16:08:00.815Z,7.17
2019-01-30T16:10:30.059Z,7.30
2019-01-30T16:12:59.529Z,7.43
2019-01-30T16:15:31.447Z,6.90
2019-01-30T16:18:00.955Z,9.73
2019-01-30T16:20:31.199Z,8.20
2019-01-30T16:22:59.972Z,9.27
2019-01-30T16:25:29.323Z,7.60
2019-01-30T16:27:58.225Z,7.00
2019-01-30T16:30:28.367Z,6.97
2019-01-30T16:32:58.348Z,7.47
2019-01-30T16:35:30.430Z,7.73
2019-01-30T16:37:59.247Z,8.40
2019-01-30T16:40:31.146Z,9.00
2019-01-30T16:43:00.344Z,8.50
2019-01-30T16:45:29.787Z,7.17
2019-01-30T16:47:59.471Z,7.83
2019-01-30T16:50:29.645Z,7.83
2019-01-30T16:52:58.788Z,8.70
2019-01-30T16:55:27.849Z,8.80
2019-01-30T16:57:56.641Z,8.80
2019-01-30T17:00:28.188Z,8.90
2019-01-30T17:02:58.836Z,8.87
2019-01-30T17:05:29.500Z,9.37
2019-01-30T17:07:58.467Z,9.33
2019-01-30T17:10:27.970Z,9.13
2019-01-30T17:12:57.350Z,9.10
2019-01-30T17:15:28.825Z,8.83
2019-01-30T17:17:57.881Z,9.50
2019-01-30T17:20:29.916Z,8.50
2019-01-30T17:22:59.360Z,8.93
2019-01-30T17:25:28.260Z,8.57
2019-01-30T17:27:57.127Z,8.83
2019-01-30T17:30:28.332Z,8.50
2019-01-30T17:32:58.031Z,9.40
2019-01-30T17:35:28.855Z,9.37
2019-01-30T17:37:59.252Z,10.03
2019-01-30T17:40:30.248Z,9.87
2019-01-30T17:42:59.625Z,10.90
2019-01-30T17:45:28.877Z,7.63
2019-01-30T17:47:57.761Z,8.20
2019-01-30T17:50:27.041Z,6.93
2019-01-30T17:52:56.472Z,5.37
2019-01-30T17:55:26.329Z,5.60
2019-01-30T17:57:54.411Z,5.77
2019-01-30T18:00:31.651Z,4.87
2019-01-30T18:03:00.952Z,4.97
2019-01-30T18:05:30.297Z,4.63
2019-01-30T18:07:59.041Z,3.63
2019-01-30T18:10:28.292Z,4.37
2019-01-30T18:12:57.808Z,3.77
2019-01-30T18:15:26.637Z,3.10
2019-01-30T18:17:55.803Z,3.53
2019-01-30T18:20:26.420Z,11.73
2019-01-30T18:22:55.833Z,5.30
2019-01-30T18:25:25.233Z,5.27
2019-01-30T18:27:54.011Z,47.67
2019-01-30T18:30:23.264Z,13.50
2019-01-30T18:32:52.392Z,7.20
2019-01-30T18:35:21.847Z,1.90
2019-01-30T18:37:51.895Z,3.23
2019-01-30T18:40:21.677Z,3.77
2019-01-30T18:42:51.046Z,2.23
2019-01-30T18:45:22.183Z,2.60
2019-01-30T18:47:51.287Z,1.67
2019-01-30T18:50:21.956Z,2.03
2019-01-30T18:52:50.965Z,2.47
2019-01-30T18:55:20.551Z,2.20
2019-01-30T18:57:49.747Z,1.63
2019-01-30T19:00:25.533Z,1.50
2019-01-30T19:02:55.924Z,1.87
2019-01-30T19:05:23.870Z,2.40
2019-01-30T19:07:52.900Z,2.90
2019-01-30T19:10:21.652Z,3.30
2019-01-30T19:12:50.948Z,3.43
2019-01-30T19:15:21.562Z,6.87
2019-01-30T19:17:52.088Z,6.87
2019-01-30T19:20:26.028Z,7.20
2019-01-30T19:22:56.431Z,5.17
2019-01-30T19:25:26.131Z,3.00
2019-01-30T19:27:56.150Z,1.00
2019-01-30T19:30:27.037Z,1.20
2019-01-30T19:32:56.300Z,0.77
2019-01-30T19:35:25.414Z,1.30
2019-01-30T19:37:55.208Z,6.50
2019-01-30T19:40:24.287Z,3.50
2019-01-30T19:42:53.523Z,3.67
2019-01-30T19:45:24.027Z,1.97
2019-01-30T19:47:53.060Z,1.30
2019-01-30T19:50:26.728Z,2.07
2019-01-30T19:52:56.565Z,1.43
2019-01-30T19:55:25.331Z,1.07
2019-01-30T19:57:55.135Z,1.50
2019-01-30T20:00:26.657Z,1.40
2019-01-30T20:02:56.146Z,1.40
2019-01-30T20:05:25.508Z,1.60
2019-01-30T20:07:54.794Z,1.50
2019-01-30T20:10:28.409Z,1.40
2019-01-30T20:12:58.339Z,1.30
2019-01-30T20:15:28.203Z,1.30
2019-01-30T20:17:57.974Z,1.47
2019-01-30T20:20:27.142Z,1.87
2019-01-30T20:22:56.279Z,1.90
2019-01-30T20:25:27.395Z,1.80
2019-01-30T20:27:58.121Z,1.73
2019-01-30T20:30:27.983Z,1.60
2019-01-30T20:32:57.673Z,1.30
2019-01-30T20:35:27.041Z,1.30
2019-01-30T20:37:55.852Z,1.33
2019-01-30T20:40:26.658Z,1.10
2019-01-30T20:42:56.135Z,1.37
2019-01-30T20:45:33.428Z,1.10
2019-01-30T20:47:56.016Z,0.93
2019-01-30T20:50:28.381Z,0.90
2019-01-30T20:52:57.549Z,1.00
2019-01-30T20:55:26.553Z,1.10
2019-01-30T20:57:55.608Z,1.00
2019-01-30T21:00:29.167Z,1.10
2019-01-30T21:02:58.069Z,1.63
2019-01-30T21:05:27.124Z,1.40
2019-01-30T21:07:56.840Z,1.00
2019-01-30T21:10:28.459Z,0.80
2019-01-30T21:12:58.002Z,1.83
2019-01-30T21:15:26.744Z,1.80
2019-01-30T21:17:55.943Z,1.30
2019-01-30T21:20:25.103Z,1.10
2019-01-30T21:22:54.651Z,1.37
2019-01-30T21:25:23.455Z,1.00
2019-01-30T21:27:52.290Z,1.57
2019-01-30T21:30:23.877Z,1.20
2019-01-30T21:32:53.024Z,1.47
2019-01-30T21:35:23.853Z,1.40
2019-01-30T21:37:52.719Z,1.50
2019-01-30T21:40:22.317Z,1.57
2019-01-30T21:42:51.396Z,1.90
2019-01-30T21:45:22.128Z,2.07
2019-01-30T21:47:51.175Z,2.27
2019-01-30T21:50:20.123Z,1.50
2019-01-30T21:52:48.937Z,1.43
2019-01-30T21:55:19.755Z,1.60
